Nova Mamore, Brazil
Current Conditions -  °F | °C
As of 7:00 PM on Friday 24 Oct 2014 (Local Time) from SLRI Reporting Station
Thunderstorm Thunderstorm  
Wind Chill: 75°   Ceiling: 1500
Heat Index: 75°   Visibility: 3mi
Dew Point: 73°   Wind: 0mph
Humidity: 94%   Direction: NA
Pressure: 29.77"   Gusts: NA
Location:  10.4°S, 65.33°W
Report Text: SLRI 242300Z 00000KT 5000 -TSRA BKN015 FEW020CB OVC070 24/23 Q1008
Loading
Personal Weather Stations






























Interactive Weather Map
Tropical Storm Tracking
New forecast layout! Learn more

10-Day Weather Forecast

Advertisements
Track Severe Weather on mobile